Time;durP1;ratioP1;P1;durP2;ratioP2;P2;SDS_P1;SDS_P2;PMS_P1;PMS_P2;Temp;Humidity;BMP_temperature;BMP_pressure;BME280_temperature;BME280_humidity;BME280_pressure;Samples;Min_cycle;Max_cycle;Signal;HPM_P1;HPM_P2
2024/03/17 00:01:47;;;;;;;5.17;3.07;;;;;;;6.23;88.57;101293.88;5139031;27;20205;-81
2024/03/17 00:04:13;;;;;;;6.73;3.70;;;;;;;6.20;88.69;101299.00;5138389;27;20211;-80
2024/03/17 00:06:40;;;;;;;5.23;4.13;;;;;;;6.14;88.01;101310.16;5138714;27;20591;-80
2024/03/17 00:09:06;;;;;;;5.03;3.17;;;;;;;6.33;88.20;101298.31;5130695;27;20256;-80
2024/03/17 00:11:32;;;;;;;4.37;3.27;;;;;;;6.36;86.88;101314.81;5117755;28;20227;-80
2024/03/17 00:13:58;;;;;;;5.90;3.57;;;;;;;6.43;86.59;101328.69;5127677;27;20209;-80
2024/03/17 00:16:24;;;;;;;3.83;3.30;;;;;;;6.50;85.94;101352.97;5139259;27;20314;-81
2024/03/17 00:18:50;;;;;;;4.87;3.23;;;;;;;6.50;85.58;101378.91;5140526;27;20198;-82
2024/03/17 00:21:16;;;;;;;5.50;3.20;;;;;;;6.27;86.64;101389.00;5140530;27;20253;-79
2024/03/17 00:23:43;;;;;;;5.67;3.83;;;;;;;6.21;87.73;101363.00;5140414;27;20232;-80
2024/03/17 00:26:09;;;;;;;5.17;3.53;;;;;;;6.30;87.87;101351.03;5139253;27;20205;-80
2024/03/17 00:28:34;;;;;;;8.57;3.73;;;;;;;6.09;88.12;101345.53;5117623;28;20591;-81
2024/03/17 00:31:04;;;;;;;5.03;4.00;;;;;;;6.13;89.15;101319.66;5125924;27;20279;-79
2024/03/17 00:33:29;;;;;;;4.73;3.20;;;;;;;6.06;88.53;101330.78;5139061;27;20230;-80
2024/03/17 00:35:55;;;;;;;4.70;4.00;;;;;;;6.15;87.76;101325.75;5138215;27;20203;-81
2024/03/17 00:38:21;;;;;;;9.57;3.70;;;;;;;6.23;87.65;101331.03;5138748;27;20204;-81
2024/03/17 00:40:49;;;;;;;4.07;3.57;;;;;;;6.18;87.87;101345.66;5139510;27;20240;-81
2024/03/17 00:43:14;;;;;;;4.70;3.60;;;;;;;6.26;88.19;101338.84;5138995;27;20264;-80
2024/03/17 00:45:40;;;;;;;5.10;3.60;;;;;;;6.31;87.03;101341.50;5140292;28;20569;-80
2024/03/17 00:48:06;;;;;;;4.90;3.30;;;;;;;6.33;86.64;101356.22;5140256;28;20199;-81
2024/03/17 00:50:33;;;;;;;4.07;3.77;;;;;;;6.32;86.04;101361.38;5138787;27;20230;-80
2024/03/17 00:52:58;;;;;;;4.67;3.70;;;;;;;6.08;86.27;101378.34;5140860;27;20193;-80
2024/03/17 00:55:24;;;;;;;4.10;3.27;;;;;;;6.16;87.22;101373.28;5140824;28;20224;-82
2024/03/17 00:57:52;;;;;;;3.63;3.17;;;;;;;6.28;86.67;101364.78;5140018;27;20288;-80
2024/03/17 01:00:19;;;;;;;3.80;3.40;;;;;;;6.22;85.64;101381.13;5122806;28;20219;-81
2024/03/17 01:02:44;;;;;;;4.70;3.50;;;;;;;6.23;86.03;101387.22;5120294;28;20269;-81
2024/03/17 01:05:10;;;;;;;6.40;3.90;;;;;;;6.18;85.44;101396.63;5120670;28;20200;-80
2024/03/17 01:07:36;;;;;;;4.40;2.97;;;;;;;6.16;86.20;101394.00;5119664;28;20206;-81
2024/03/17 01:10:02;;;;;;;4.03;3.47;;;;;;;6.21;85.67;101392.38;5119846;28;20616;-79
2024/03/17 01:12:28;;;;;;;4.03;3.63;;;;;;;6.29;85.38;101395.06;5122124;28;20203;-80
2024/03/17 01:14:55;;;;;;;5.83;3.60;;;;;;;6.31;85.54;101391.63;5140146;27;20657;-81
2024/03/17 01:17:21;;;;;;;3.27;2.97;;;;;;;6.28;85.19;101406.28;5125913;27;20670;-80
2024/03/17 01:19:47;;;;;;;3.50;3.20;;;;;;;6.29;85.57;101406.31;5121904;28;20236;-81
2024/03/17 01:22:13;;;;;;;3.40;3.10;;;;;;;6.30;84.59;101407.16;5122397;27;20211;-79
2024/03/17 01:24:42;;;;;;;3.67;3.33;;;;;;;6.34;85.03;101408.94;5139421;27;20205;-78
2024/03/17 01:27:09;;;;;;;4.00;3.07;;;;;;;6.31;85.28;101403.75;5139398;27;20199;-80
2024/03/17 01:29:35;;;;;;;3.67;3.03;;;;;;;6.27;84.83;101407.16;5126805;27;20233;-79
2024/03/17 01:32:02;;;;;;;3.80;2.73;;;;;;;6.27;84.68;101408.00;5120096;27;20225;-80
2024/03/17 01:34:28;;;;;;;3.70;2.90;;;;;;;6.12;85.23;101413.81;5125367;27;20270;-80
2024/03/17 01:36:53;;;;;;;4.87;3.20;;;;;;;6.10;85.40;101410.34;5132986;27;20205;-80
2024/03/17 01:39:23;;;;;;;3.60;3.23;;;;;;;6.10;85.64;101397.38;5122917;28;20217;-79
2024/03/17 01:41:48;;;;;;;5.03;3.17;;;;;;;5.92;87.20;101384.97;5122339;28;20639;-80
2024/03/17 01:44:23;;;;;;;5.03;3.40;;;;;;;6.02;87.16;101369.63;5133949;27;20200;-79
2024/03/17 01:46:50;;;;;;;4.43;2.80;;;;;;;6.11;86.79;101354.22;5136120;27;20195;-80
2024/03/17 01:49:17;;;;;;;3.90;2.63;;;;;;;6.18;85.61;101361.19;5143076;27;20339;-78
2024/03/17 01:51:44;;;;;;;5.50;2.63;;;;;;;6.20;84.96;101369.00;5142721;27;20213;-79
2024/03/17 01:54:11;;;;;;;3.50;3.00;;;;;;;6.18;84.94;101388.84;5126923;27;20200;-79
2024/03/17 01:56:37;;;;;;;4.30;2.80;;;;;;;6.10;84.69;101394.78;5119924;28;20222;-80
2024/03/17 01:59:05;;;;;;;3.70;3.17;;;;;;;5.90;85.73;101397.03;5119913;27;20207;-79
2024/03/17 02:01:31;;;;;;;6.87;2.97;;;;;;;5.88;85.81;101378.00;5120172;28;20227;-80
2024/03/17 02:03:57;;;;;;;5.23;3.47;;;;;;;5.87;85.73;101368.50;5117960;28;20268;-79
2024/03/17 02:06:25;;;;;;;5.53;3.13;;;;;;;5.80;86.71;101365.78;5117627;28;20206;-80
2024/03/17 02:08:53;;;;;;;5.13;3.40;;;;;;;5.80;87.11;101358.03;5118151;27;20253;-79
2024/03/17 02:11:25;;;;;;;5.33;3.00;;;;;;;5.72;86.76;101348.41;5117270;28;20593;-78
2024/03/17 02:13:52;;;;;;;6.97;3.40;;;;;;;5.45;88.01;101342.78;5127342;27;20199;-79
2024/03/17 02:16:18;;;;;;;3.77;2.90;;;;;;;5.37;88.80;101324.53;5140987;27;20572;-80
2024/03/17 02:18:45;;;;;;;6.70;3.63;;;;;;;5.29;90.03;101295.94;5136973;27;20203;-79
2024/03/17 02:21:10;;;;;;;5.13;3.30;;;;;;;5.31;90.51;101273.53;5120279;28;20253;-79
2024/03/17 02:23:38;;;;;;;6.77;3.80;;;;;;;5.20;90.59;101269.91;5119855;27;20207;-80
2024/03/17 02:26:04;;;;;;;4.70;3.80;;;;;;;5.18;90.51;101259.53;5122270;27;20196;-79
2024/03/17 02:28:30;;;;;;;5.53;3.13;;;;;;;5.28;90.58;101245.00;5121573;28;20204;-79
2024/03/17 02:30:55;;;;;;;9.13;3.47;;;;;;;5.26;90.90;101240.66;5120909;28;20219;-78
2024/03/17 02:33:22;;;;;;;4.23;3.30;;;;;;;5.29;91.12;101238.09;5120534;28;20244;-79
2024/03/17 02:35:48;;;;;;;6.07;3.27;;;;;;;5.31;90.62;101231.22;5119867;28;20654;-79
2024/03/17 02:39:31;;;;;;;5.90;3.00;;;;;;;5.20;89.78;101237.97;5119452;28;20202;-80
2024/03/17 02:41:03;;;;;;;3.73;2.77;;;;;;;5.23;90.74;101227.66;5133664;27;20247;-79
2024/03/17 02:43:30;;;;;;;6.03;3.50;;;;;;;5.17;91.22;101224.16;5139426;27;20204;-80
2024/03/17 02:45:57;;;;;;;5.07;3.80;;;;;;;5.15;91.21;101228.44;5140767;27;20622;-79
2024/03/17 02:48:23;;;;;;;4.90;3.20;;;;;;;5.14;91.92;101220.63;5140925;27;20195;-80
2024/03/17 02:50:49;;;;;;;8.80;4.17;;;;;;;5.08;92.13;101211.06;5140808;27;20219;-79
2024/03/17 02:53:16;;;;;;;6.93;4.33;;;;;;;5.07;92.41;101200.66;5140510;27;20662;-79
2024/03/17 02:55:42;;;;;;;7.90;3.40;;;;;;;5.08;92.16;101190.34;5140528;27;20206;-79
2024/03/17 02:58:10;;;;;;;5.47;3.37;;;;;;;5.05;91.87;101190.28;5139255;27;20259;-79
2024/03/17 03:00:37;;;;;;;4.87;3.30;;;;;;;5.11;92.58;101181.75;5140767;27;20619;-80
2024/03/17 03:03:04;;;;;;;4.47;3.20;;;;;;;5.13;91.19;101190.41;5140029;27;20208;-79
2024/03/17 03:05:30;;;;;;;5.63;3.33;;;;;;;5.11;91.46;101197.28;5139020;27;20220;-79
2024/03/17 03:07:57;;;;;;;4.20;3.73;;;;;;;5.10;91.23;101206.78;5140400;27;20210;-80
2024/03/17 03:10:24;;;;;;;3.53;3.00;;;;;;;5.17;91.48;101202.56;5123244;27;20255;-79
2024/03/17 03:12:51;;;;;;;5.83;3.70;;;;;;;5.17;91.36;101216.38;5118839;28;20581;-80
2024/03/17 03:15:19;;;;;;;3.93;3.47;;;;;;;5.21;90.83;101216.41;5126395;27;20206;-78
2024/03/17 03:17:45;;;;;;;6.13;3.33;;;;;;;5.17;90.57;101208.63;5138763;27;20198;-79
2024/03/17 03:20:13;;;;;;;5.63;4.47;;;;;;;5.07;91.08;101216.19;5139973;27;20247;-79
2024/03/17 03:22:39;;;;;;;7.33;3.40;;;;;;;5.04;91.93;101201.50;5130260;27;20634;-79
2024/03/17 03:25:06;;;;;;;4.90;3.40;;;;;;;5.04;91.96;101203.22;5139936;27;20199;-80
2024/03/17 03:27:33;;;;;;;8.53;4.07;;;;;;;5.18;91.19;101193.94;5138437;27;20408;-79
2024/03/17 03:30:00;;;;;;;5.90;3.23;;;;;;;5.22;91.56;101203.50;5140356;27;20570;-80
2024/03/17 03:32:28;;;;;;;5.53;3.80;;;;;;;5.18;91.13;101205.16;5140479;27;20220;-80
2024/03/17 03:34:54;;;;;;;7.47;3.70;;;;;;;5.23;90.70;101204.38;5141130;27;20202;-78
2024/03/17 03:37:21;;;;;;;4.20;3.43;;;;;;;5.27;90.78;101227.75;5139930;27;20199;-81
2024/03/17 03:39:47;;;;;;;3.97;3.10;;;;;;;5.36;90.19;101234.78;5139328;27;20224;-80
2024/03/17 03:42:13;;;;;;;6.77;4.53;;;;;;;5.45;89.15;101246.97;5139097;27;20199;-81
2024/03/17 03:44:39;;;;;;;5.73;3.47;;;;;;;5.51;89.12;101258.31;5138996;27;20207;-80
2024/03/17 03:47:06;;;;;;;4.43;3.47;;;;;;;5.53;88.62;101271.25;5138976;27;20194;-79
2024/03/17 03:49:34;;;;;;;4.33;2.87;;;;;;;5.58;88.74;101278.25;5108149;22;20616;-81
2024/03/17 03:52:00;;;;;;;4.80;3.20;;;;;;;5.68;89.03;101275.81;5047618;28;20222;-81
2024/03/17 03:54:26;;;;;;;6.90;2.70;;;;;;;5.66;89.33;101282.69;5040974;28;20213;-80
2024/03/17 03:56:54;;;;;;;7.53;3.20;;;;;;;5.70;89.19;101281.88;5051896;28;20270;-80
2024/03/17 03:59:20;;;;;;;5.43;3.20;;;;;;;5.79;89.75;101269.09;5053157;28;20225;-83
2024/03/17 04:01:49;;;;;;;8.10;3.17;;;;;;;5.73;90.10;101266.41;5053099;28;20237;-84
2024/03/17 04:04:15;;;;;;;3.60;3.17;;;;;;;5.74;90.09;101256.03;5052477;28;20233;-81
2024/03/17 04:06:43;;;;;;;8.87;3.20;;;;;;;5.75;90.01;101250.03;5052178;28;20272;-81
2024/03/17 04:09:10;;;;;;;7.67;3.03;;;;;;;5.78;90.60;101254.38;5052636;28;20224;-81
2024/03/17 04:11:36;;;;;;;6.43;3.57;;;;;;;5.81;90.61;101249.25;5051954;28;20604;-81
2024/03/17 04:14:03;;;;;;;10.40;3.40;;;;;;;5.88;89.78;101242.41;5052432;28;20287;-81
2024/03/17 04:16:31;;;;;;;7.67;3.10;;;;;;;5.91;90.01;101245.91;5052525;28;20221;-82
2024/03/17 04:18:57;;;;;;;5.43;3.10;;;;;;;5.90;89.95;101254.53;5052443;28;20301;-84
2024/03/17 04:21:24;;;;;;;5.97;3.17;;;;;;;5.90;89.24;101259.72;5036288;28;20256;-81
2024/03/17 04:23:51;;;;;;;4.53;3.07;;;;;;;5.91;89.41;101266.66;5051861;28;20696;-82
2024/03/17 04:26:18;;;;;;;8.80;3.40;;;;;;;5.85;89.21;101270.88;5052640;28;20229;-82
2024/03/17 04:28:45;;;;;;;6.77;3.47;;;;;;;5.79;89.70;101261.31;5051611;28;20227;-82
2024/03/17 04:31:11;;;;;;;5.57;3.33;;;;;;;5.81;89.79;101259.59;5052281;28;20230;-81
2024/03/17 04:33:38;;;;;;;9.23;3.63;;;;;;;5.87;90.05;101258.81;5052003;28;20313;-81
2024/03/17 04:36:04;;;;;;;4.83;3.43;;;;;;;5.89;90.14;101258.00;5052123;28;20198;-82
2024/03/17 04:38:30;;;;;;;6.90;4.27;;;;;;;6.01;89.34;101270.28;5051812;28;20259;-82
2024/03/17 04:41:04;;;;;;;4.60;3.37;;;;;;;6.07;89.64;101259.13;5051988;28;20572;-83
2024/03/17 04:43:31;;;;;;;5.80;3.80;;;;;;;6.03;89.84;101260.78;5051645;28;20409;-80
2024/03/17 04:46:03;;;;;;;5.17;3.87;;;;;;;5.89;89.71;101265.75;5056076;28;20203;-82
2024/03/17 04:48:30;;;;;;;6.53;3.83;;;;;;;5.86;89.83;101262.25;5046736;28;20209;-80
2024/03/17 04:50:56;;;;;;;7.27;3.73;;;;;;;5.91;89.90;101258.88;5043351;28;20700;-81
2024/03/17 04:53:22;;;;;;;4.73;3.80;;;;;;;5.93;90.09;101258.91;5052550;28;20258;-80
2024/03/17 04:55:49;;;;;;;7.50;3.43;;;;;;;5.91;89.60;101268.38;5049675;28;20299;-80
2024/03/17 04:58:16;;;;;;;6.60;3.40;;;;;;;5.96;89.31;101259.81;5046199;28;20245;-82
2024/03/17 05:00:43;;;;;;;9.57;3.63;;;;;;;5.95;89.16;101267.59;5051743;28;20248;-80
2024/03/17 05:03:09;;;;;;;6.47;3.80;;;;;;;6.00;89.94;101275.44;5051914;28;20237;-82
2024/03/17 05:05:35;;;;;;;5.47;3.63;;;;;;;6.03;88.76;101286.72;5051415;28;20291;-80
2024/03/17 05:08:02;;;;;;;4.10;3.47;;;;;;;6.07;89.44;101282.44;5051946;28;20237;-81
2024/03/17 05:10:28;;;;;;;4.23;3.63;;;;;;;6.02;89.10;101292.72;5051814;28;20275;-83
2024/03/17 05:12:55;;;;;;;4.47;3.53;;;;;;;5.91;89.73;101291.69;5051175;28;20240;-81
2024/03/17 05:15:23;;;;;;;4.37;3.30;;;;;;;5.86;90.03;101282.97;5052022;28;20208;-82
2024/03/17 05:17:49;;;;;;;5.00;3.90;;;;;;;5.84;90.39;101285.53;5051524;28;20266;-81
2024/03/17 05:20:16;;;;;;;5.43;4.07;;;;;;;5.93;89.73;101279.63;5051586;28;20218;-81
2024/03/17 05:22:44;;;;;;;5.93;3.60;;;;;;;6.01;89.74;101292.72;5051071;28;20260;-82
2024/03/17 05:25:10;;;;;;;6.50;5.03;;;;;;;6.00;88.68;101301.34;5051836;28;20243;-80
2024/03/17 05:27:37;;;;;;;8.73;5.00;;;;;;;5.93;88.36;101319.38;5051114;28;20210;-81
2024/03/17 05:30:04;;;;;;;6.60;5.90;;;;;;;5.91;87.68;101335.75;5051630;28;20280;-84
2024/03/17 05:32:32;;;;;;;5.23;4.73;;;;;;;5.86;87.31;101346.03;5051487;28;20700;-80
2024/03/17 05:34:58;;;;;;;4.17;3.77;;;;;;;5.70;87.26;101360.47;5043037;28;20228;-82
2024/03/17 05:37:24;;;;;;;5.87;3.63;;;;;;;5.77;87.15;101370.09;5051961;28;20202;-81
2024/03/17 05:39:51;;;;;;;4.30;3.90;;;;;;;5.28;86.19;101396.88;5051500;28;20256;-80
2024/03/17 05:42:17;;;;;;;6.33;4.23;;;;;;;5.13;87.53;101390.56;5051118;28;20233;-82
2024/03/17 05:44:50;;;;;;;6.23;4.10;;;;;;;4.92;88.44;101375.50;5051487;28;20255;-81
2024/03/17 05:47:18;;;;;;;4.00;3.73;;;;;;;5.21;88.65;101362.22;5051627;28;20574;-81
2024/03/17 05:49:46;;;;;;;6.30;4.07;;;;;;;5.30;89.16;101343.41;5049275;28;20614;-81
2024/03/17 05:52:12;;;;;;;6.73;4.53;;;;;;;5.45;89.91;101329.84;5036785;28;20223;-83
2024/03/17 05:54:39;;;;;;;4.73;3.90;;;;;;;5.44;90.05;101328.97;5051782;28;20242;-83
2024/03/17 05:57:06;;;;;;;6.10;4.70;;;;;;;5.53;89.28;101328.22;5051381;28;20242;-83
2024/03/17 05:59:33;;;;;;;5.23;4.73;;;;;;;5.49;90.18;101335.09;5061620;28;20231;-82
2024/03/17 06:01:59;;;;;;;6.77;4.40;;;;;;;5.61;90.32;101324.06;5047195;28;20198;-83
2024/03/17 06:04:25;;;;;;;4.40;4.00;;;;;;;5.69;90.01;101326.75;5055096;28;20231;-81
2024/03/17 06:06:53;;;;;;;5.63;4.60;;;;;;;5.78;89.69;101330.34;5054552;28;20241;-81
2024/03/17 06:09:19;;;;;;;5.30;4.43;;;;;;;5.82;89.22;101335.59;5057285;28;20604;-83
2024/03/17 06:11:46;;;;;;;6.23;4.57;;;;;;;5.85;89.76;101333.06;5052326;28;20225;-82
2024/03/17 06:14:13;;;;;;;4.83;4.40;;;;;;;5.87;89.79;101323.59;5054820;28;20230;-83
2024/03/17 06:16:39;;;;;;;5.47;4.40;;;;;;;5.83;91.22;101317.50;5054987;28;20226;-81
2024/03/17 06:19:06;;;;;;;6.37;4.73;;;;;;;5.89;91.31;101304.63;5050799;28;20251;-83
2024/03/17 06:21:33;;;;;;;7.90;4.63;;;;;;;5.87;91.11;101293.38;5042383;28;20236;-82
2024/03/17 06:24:00;;;;;;;7.93;5.00;;;;;;;5.98;90.77;101290.94;5055541;28;20198;-81
2024/03/17 06:26:27;;;;;;;5.90;4.97;;;;;;;6.04;89.97;101301.41;5054977;28;20757;-82
2024/03/17 06:28:54;;;;;;;5.00;4.53;;;;;;;6.07;90.66;101304.03;5062573;28;20237;-81
2024/03/17 06:31:20;;;;;;;5.40;4.57;;;;;;;6.14;89.72;101310.16;5055128;28;20331;-80
2024/03/17 06:33:46;;;;;;;6.17;4.63;;;;;;;6.15;90.29;101307.59;5054674;28;20234;-82
2024/03/17 06:36:13;;;;;;;5.90;4.00;;;;;;;6.21;89.75;101312.00;5054806;28;20284;-81
2024/03/17 06:38:40;;;;;;;4.53;3.93;;;;;;;6.29;88.98;101317.28;5054348;28;20252;-80
2024/03/17 06:41:10;;;;;;;7.70;4.57;;;;;;;6.35;89.15;101330.31;5054449;28;20200;-82
2024/03/17 06:43:36;;;;;;;7.63;5.03;;;;;;;6.40;89.99;101330.38;5053985;28;20207;-82
2024/03/17 06:46:04;;;;;;;5.53;4.23;;;;;;;6.45;89.25;101321.81;5054308;28;20202;-82
2024/03/17 06:48:30;;;;;;;6.67;4.77;;;;;;;6.54;88.16;101334.00;5053902;28;20636;-82
2024/03/17 06:50:57;;;;;;;6.10;5.00;;;;;;;6.57;87.36;101365.19;5053851;28;20221;-82
2024/03/17 06:53:24;;;;;;;5.60;5.03;;;;;;;6.60;86.93;101379.91;5054028;28;20202;-82
2024/03/17 06:55:54;;;;;;;5.20;4.67;;;;;;;6.57;87.17;101391.13;5058503;28;20671;-81
2024/03/17 06:58:23;;;;;;;5.97;5.37;;;;;;;6.63;86.56;101395.53;5048011;28;20206;-80
2024/03/17 07:00:56;;;;;;;8.50;5.40;;;;;;;6.67;85.97;101405.09;5053702;28;20244;-83
2024/03/17 07:03:24;;;;;;;5.43;4.83;;;;;;;6.70;84.84;101420.66;5054288;28;20233;-84
2024/03/17 07:05:55;;;;;;;5.67;5.17;;;;;;;6.72;84.93;101425.03;5053689;28;20759;-84
2024/03/17 07:08:22;;;;;;;6.30;4.83;;;;;;;6.78;85.85;101424.25;5054323;28;20206;-83
2024/03/17 07:11:07;;;;;;;5.87;4.67;;;;;;;6.81;85.43;101426.00;5053084;28;20280;-83
2024/03/17 07:13:36;;;;;;;6.53;5.70;;;;;;;6.88;84.76;101422.66;5053760;28;20268;-82
2024/03/17 07:16:03;;;;;;;9.03;5.27;;;;;;;6.91;84.71;101427.88;5054048;28;20197;-81
2024/03/17 07:18:30;;;;;;;5.90;5.40;;;;;;;6.95;86.22;101424.44;5053472;28;20259;-83
2024/03/17 07:21:02;;;;;;;7.37;5.33;;;;;;;7.01;86.48;101403.75;5053540;28;20205;-81
2024/03/17 07:23:28;;;;;;;5.97;5.30;;;;;;;7.05;86.40;101396.88;5053890;28;20617;-82
2024/03/17 07:25:55;;;;;;;8.27;6.00;;;;;;;7.09;87.38;101385.66;5053803;28;20207;-83
2024/03/17 07:28:22;;;;;;;7.47;5.70;;;;;;;7.17;88.17;101365.84;5053766;28;20206;-84
2024/03/17 07:30:51;;;;;;;6.93;5.17;;;;;;;7.26;88.28;101352.97;5053602;28;20257;-83
2024/03/17 07:33:20;;;;;;;7.70;4.80;;;;;;;7.32;88.52;101346.94;5053342;28;20256;-83
2024/03/17 07:35:50;;;;;;;7.90;4.73;;;;;;;7.34;88.09;101353.03;5060954;28;20209;-84
2024/03/17 07:38:16;;;;;;;5.13;4.47;;;;;;;7.44;88.06;101351.38;5033816;28;20352;-83
2024/03/17 07:40:43;;;;;;;7.50;4.73;;;;;;;7.51;87.60;101355.75;5032928;28;20709;-84
2024/03/17 07:43:09;;;;;;;5.33;4.83;;;;;;;7.51;86.43;101374.84;5045068;28;20233;-84
2024/03/17 07:45:36;;;;;;;7.07;4.97;;;;;;;7.57;85.74;101405.16;5053545;28;20262;-84
2024/03/17 07:48:04;;;;;;;6.10;4.97;;;;;;;7.56;85.58;101424.22;5052640;28;20223;-83
2024/03/17 07:50:30;;;;;;;7.30;4.97;;;;;;;7.64;85.48;101424.31;5044511;28;20226;-82
2024/03/17 07:52:56;;;;;;;8.83;4.57;;;;;;;7.63;84.83;101435.53;5059545;28;20604;-84
2024/03/17 07:55:23;;;;;;;8.87;5.03;;;;;;;7.62;84.77;101444.22;5046849;28;20226;-83
2024/03/17 07:57:49;;;;;;;8.80;4.27;;;;;;;7.65;85.35;101434.72;5051298;28;20212;-83
2024/03/17 08:00:16;;;;;;;7.30;5.17;;;;;;;7.67;85.08;101437.31;5045712;28;20232;-82
2024/03/17 08:02:43;;;;;;;5.63;4.50;;;;;;;7.72;84.35;101452.09;5052854;28;20585;-82
2024/03/17 08:05:11;;;;;;;8.60;4.30;;;;;;;7.78;84.09;101461.69;5052837;28;20207;-85
2024/03/17 08:07:37;;;;;;;7.53;4.50;;;;;;;7.81;83.46;101476.41;5052382;28;20606;-85
2024/03/17 08:10:04;;;;;;;7.80;6.10;;;;;;;7.90;84.62;101486.91;5052870;28;20242;-86
2024/03/17 08:12:31;;;;;;;7.90;4.93;;;;;;;7.98;84.35;101471.38;5054452;28;20232;-86
2024/03/17 08:14:57;;;;;;;6.70;4.83;;;;;;;8.03;83.14;101487.91;5032920;28;20204;-84
2024/03/17 08:17:24;;;;;;;6.83;4.57;;;;;;;8.11;83.65;101478.44;5045889;28;20219;-84
2024/03/17 08:19:50;;;;;;;8.93;4.80;;;;;;;8.14;82.22;101509.66;5044312;28;20854;-86
2024/03/17 08:22:18;;;;;;;7.07;4.33;;;;;;;8.18;81.96;101521.81;5052062;28;20202;-87
2024/03/17 08:24:45;;;;;;;9.03;4.87;;;;;;;8.24;80.89;101547.00;5052614;28;20206;-86
2024/03/17 08:27:11;;;;;;;7.77;4.90;;;;;;;8.34;83.12;101517.59;5053208;28;20233;-86
2024/03/17 08:29:37;;;;;;;7.83;4.73;;;;;;;8.38;81.19;101532.38;5053770;28;20269;-85
2024/03/17 08:32:04;;;;;;;8.13;4.40;;;;;;;8.41;80.63;101555.88;5052452;28;20401;-86
2024/03/17 08:34:30;;;;;;;8.60;4.60;;;;;;;8.43;80.00;101567.16;5041626;28;20622;-84
2024/03/17 08:36:57;;;;;;;6.27;4.53;;;;;;;8.49;82.06;101555.94;5057160;28;20620;-85
2024/03/17 08:39:25;;;;;;;7.87;4.77;;;;;;;8.46;82.34;101529.88;5045874;28;20595;-83
2024/03/17 08:41:51;;;;;;;12.93;5.27;;;;;;;8.52;81.58;101524.72;5054001;28;20210;-86
2024/03/17 08:44:17;;;;;;;8.93;5.30;;;;;;;8.58;83.48;101506.53;5046130;28;20205;-83
2024/03/17 08:46:44;;;;;;;7.47;5.10;;;;;;;8.65;81.56;101508.31;5048254;28;20254;-86
2024/03/17 08:49:10;;;;;;;6.27;4.90;;;;;;;8.70;81.59;101521.34;5052438;28;20760;-84
2024/03/17 08:51:37;;;;;;;10.73;4.60;;;;;;;8.88;84.00;101484.13;5051454;28;20233;-84
2024/03/17 08:54:03;;;;;;;9.87;4.03;;;;;;;8.99;83.39;101466.84;5051714;28;20256;-84
2024/03/17 08:56:31;;;;;;;8.77;3.63;;;;;;;9.10;82.51;101483.38;5052579;28;20571;-85
2024/03/17 08:58:57;;;;;;;5.37;3.73;;;;;;;9.17;80.97;101506.84;5052203;28;20261;-84
2024/03/17 09:01:24;;;;;;;9.37;4.00;;;;;;;9.17;80.11;101517.28;5052474;28;20247;-83
2024/03/17 09:03:52;;;;;;;10.83;4.13;;;;;;;9.24;80.73;101527.72;5052291;28;20288;-85
2024/03/17 09:06:19;;;;;;;7.03;3.10;;;;;;;9.28;78.84;101559.88;5051966;28;20656;-84
2024/03/17 09:08:46;;;;;;;9.37;4.30;;;;;;;9.44;82.55;101535.63;5052276;28;20669;-85
2024/03/17 09:11:14;;;;;;;9.00;3.30;;;;;;;9.48;82.89;101510.44;5051880;28;20255;-84
2024/03/17 09:13:42;;;;;;;19.83;6.07;;;;;;;9.77;91.40;101429.66;5052568;28;20707;-83
2024/03/17 09:16:11;;;;;;;9.67;4.47;;;;;;;10.05;97.21;101239.22;5045878;28;20211;-85
2024/03/17 09:18:37;;;;;;;9.40;4.70;;;;;;;10.21;94.25;101220.06;5051869;28;20230;-82
2024/03/17 09:21:05;;;;;;;8.60;4.17;;;;;;;10.33;93.10;101230.44;5052066;28;20208;-85
2024/03/17 09:23:35;;;;;;;7.10;4.23;;;;;;;10.61;92.66;101203.31;5052685;28;20628;-85
2024/03/17 09:26:03;;;;;;;6.43;4.43;;;;;;;10.80;88.14;101248.44;5052670;28;20217;-85
2024/03/17 09:28:30;;;;;;;6.93;3.83;;;;;;;10.82;83.66;101340.72;5054776;28;20205;-84
2024/03/17 09:30:58;;;;;;;6.80;4.10;;;;;;;10.77;79.96;101441.72;5049570;28;20211;-85
2024/03/17 09:33:27;;;;;;;8.40;4.20;;;;;;;10.68;78.47;101519.22;5054500;28;20273;-82
2024/03/17 09:35:54;;;;;;;7.57;4.33;;;;;;;10.61;75.31;101615.84;5055943;28;20260;-83
2024/03/17 09:38:21;;;;;;;6.87;4.23;;;;;;;10.58;74.00;101668.91;5056057;28;20206;-84
2024/03/17 09:40:47;;;;;;;6.13;4.13;;;;;;;10.67;76.18;101671.53;5056678;28;20210;-83
2024/03/17 09:43:14;;;;;;;9.30;4.57;;;;;;;10.69;74.54;101715.94;5055142;28;20230;-83
2024/03/17 09:45:40;;;;;;;8.37;4.20;;;;;;;10.68;72.83;101776.84;5056156;28;20231;-84
2024/03/17 09:48:14;;;;;;;8.27;4.70;;;;;;;10.64;69.93;101840.41;5055648;28;20211;-84
2024/03/17 09:50:41;;;;;;;6.33;4.63;;;;;;;10.67;73.71;101832.59;5058416;28;20727;-83
2024/03/17 09:53:16;;;;;;;10.77;4.47;;;;;;;10.61;70.43;101849.09;5057760;28;20229;-84
2024/03/17 09:55:42;;;;;;;6.63;4.60;;;;;;;10.57;70.95;101907.41;5057013;28;20293;-83
2024/03/17 09:58:17;;;;;;;8.97;5.27;;;;;;;10.58;71.73;101864.75;5061647;28;20275;-84
2024/03/17 10:00:43;;;;;;;7.90;4.63;;;;;;;10.55;67.88;101916.09;5066089;28;20223;-84
2024/03/17 10:03:11;;;;;;;6.17;4.90;;;;;;;10.58;72.82;101875.19;5068810;28;20207;-83
2024/03/17 10:05:37;;;;;;;8.80;5.07;;;;;;;10.62;72.52;101860.41;5068477;28;20217;-85
2024/03/17 10:08:04;;;;;;;7.13;4.97;;;;;;;10.74;70.77;101831.72;5062497;28;20212;-85
2024/03/17 10:10:30;;;;;;;6.70;4.97;;;;;;;10.73;68.11;101908.34;5067033;28;20255;-85
2024/03/17 10:12:57;;;;;;;6.43;5.27;;;;;;;10.71;66.81;101950.09;5064549;28;20684;-85
2024/03/17 10:15:23;;;;;;;8.93;5.23;;;;;;;10.79;67.12;101947.53;5056543;28;20199;-85
2024/03/17 10:17:50;;;;;;;7.47;5.07;;;;;;;10.76;69.76;101954.47;5057523;28;20583;-84
2024/03/17 10:20:20;;;;;;;10.77;4.90;;;;;;;10.63;68.26;101957.03;5049531;28;20339;-85
2024/03/17 10:23:00;;;;;;;7.70;5.00;;;;;;;10.44;67.98;101995.19;5057397;28;20210;-86
2024/03/17 10:25:27;;;;;;;8.73;5.30;;;;;;;10.47;68.88;101963.91;5056430;28;20207;-85
2024/03/17 10:27:54;;;;;;;8.40;4.60;;;;;;;10.49;69.75;101954.34;5055628;28;20230;-85
2024/03/17 10:30:21;;;;;;;6.70;4.87;;;;;;;10.51;70.22;101939.56;5055295;28;20230;-85
2024/03/17 10:32:53;;;;;;;8.20;4.97;;;;;;;10.16;68.46;101959.31;5056542;28;20761;-85
2024/03/17 10:35:32;;;;;;;10.93;4.90;;;;;;;10.36;68.76;101959.47;5060256;28;20203;-85
2024/03/17 10:38:00;;;;;;;8.00;5.10;;;;;;;10.59;73.38;101926.56;5043399;28;20244;-83
2024/03/17 10:40:27;;;;;;;7.33;5.00;;;;;;;10.59;70.11;101869.09;5055803;28;20284;-81
2024/03/17 10:42:54;;;;;;;6.90;5.10;;;;;;;10.73;72.57;101885.69;5054485;28;20250;-83
2024/03/17 10:45:21;;;;;;;8.57;5.47;;;;;;;10.94;74.06;101816.09;5050455;28;20207;-83
2024/03/17 10:47:49;;;;;;;9.23;5.40;;;;;;;11.01;71.36;101830.91;5049892;28;20200;-84
2024/03/17 10:50:19;;;;;;;6.13;5.50;;;;;;;11.14;69.66;101857.97;5052437;28;20673;-84
2024/03/17 10:52:50;;;;;;;6.30;4.63;;;;;;;11.20;67.16;101897.16;5049614;28;20219;-83
2024/03/17 10:55:24;;;;;;;6.53;5.43;;;;;;;11.25;67.27;101955.53;5055331;28;20246;-82
2024/03/17 10:57:53;;;;;;;13.23;5.20;;;;;;;11.35;67.52;101968.63;5053911;28;20235;-83
2024/03/17 11:00:21;;;;;;;7.83;5.70;;;;;;;11.30;66.20;101993.03;4355346;28;10000735;-83
2024/03/17 11:02:49;;;;;;;5.47;4.97;;;;;;;11.37;64.09;102032.25;5051436;28;20295;-83
2024/03/17 11:05:18;;;;;;;7.23;5.53;;;;;;;11.29;63.52;102066.22;5051539;28;20239;-83
2024/03/17 11:07:48;;;;;;;7.80;5.23;;;;;;;11.25;62.86;102083.63;5053523;28;20211;-83
2024/03/17 11:10:21;;;;;;;6.20;5.60;;;;;;;11.23;62.51;102105.41;5050986;28;21000;-83
2024/03/17 11:12:50;;;;;;;8.60;5.73;;;;;;;11.22;63.26;102108.88;5051141;28;20289;-84
2024/03/17 11:15:40;;;;;;;5.97;5.13;;;;;;;11.34;62.22;102132.47;5048776;28;20207;-83
2024/03/17 11:18:30;;;;;;;6.70;5.03;;;;;;;11.37;62.57;102140.31;5039834;28;20327;-85
2024/03/17 11:21:01;;;;;;;6.43;5.80;;;;;;;11.59;63.58;102127.34;5051019;28;20635;-85
2024/03/17 11:23:30;;;;;;;6.93;5.17;;;;;;;11.74;61.89;102124.81;5042961;28;20208;-85
2024/03/17 11:25:57;;;;;;;5.83;5.30;;;;;;;11.89;62.58;102126.59;5051164;28;20215;-85
2024/03/17 11:28:49;;;;;;;7.60;5.50;;;;;;;12.09;62.86;102122.31;5050883;28;20211;-85
2024/03/17 11:31:35;;;;;;;6.47;5.50;;;;;;;12.26;60.55;102152.88;5048384;28;20212;-84
2024/03/17 11:34:03;;;;;;;5.20;4.50;;;;;;;12.48;60.40;102166.88;5050448;28;20239;-85